Time;durP1;ratioP1;P1;durP2;ratioP2;P2;SDS_P1;SDS_P2;PMS_P1;PMS_P2;Temp;Humidity;BMP_temperature;BMP_pressure;BME280_temperature;BME280_humidity;BME280_pressure;Samples;Min_cycle;Max_cycle;Signal;HPM_P1;HPM_P2
2022/05/13 00:01:21;;;;;;;5.70;3.97;;;21.90;84.70;;;;;;4989621;28;20021;-76
2022/05/13 00:03:54;;;;;;;6.07;4.13;;;21.90;84.50;;;;;;4983732;28;20481;-76
2022/05/13 00:06:20;;;;;;;3.85;3.47;;;21.90;84.30;;;;;;4987871;28;20029;-76
2022/05/13 00:08:48;;;;;;;;;;;21.80;84.40;;;;;;4977562;28;20029;-76
2022/05/13 00:11:15;;;;;;;7.35;3.95;;;21.80;84.70;;;;;;4985685;28;19913;-76
2022/05/13 00:13:40;;;;;;;4.25;3.53;;;21.80;84.90;;;;;;4981963;28;20022;-77
2022/05/13 00:16:06;;;;;;;6.40;4.00;;;21.80;85.20;;;;;;4988195;28;20379;-76
2022/05/13 00:18:33;;;;;;;6.18;3.72;;;21.80;85.80;;;;;;4978685;28;20025;-76
2022/05/13 00:20:59;;;;;;;;;;;21.80;85.80;;;;;;4987149;28;20053;-76
2022/05/13 00:23:27;;;;;;;3.78;3.47;;;21.80;85.70;;;;;;4984459;28;19969;-76
2022/05/13 00:25:54;;;;;;;6.50;3.80;;;21.90;85.50;;;;;;4980793;28;20037;-77
2022/05/13 00:28:22;;;;;;;7.38;5.00;;;21.90;84.40;;;;;;4981279;28;20030;-77
2022/05/13 00:30:51;;;;;;;7.88;4.20;;;21.80;80.80;;;;;;4985901;28;20644;-77
2022/05/13 00:33:22;;;;;;;5.40;3.55;;;21.70;79.70;;;;;;4984632;28;20109;-78
2022/05/13 00:35:49;;;;;;;6.32;3.58;;;21.60;77.60;;;;;;4994149;28;20767;-76
2022/05/13 00:38:15;;;;;;;6.15;3.33;;;21.50;77.00;;;;;;4987975;28;20052;-77
2022/05/13 00:40:42;;;;;;;4.75;3.28;;;21.40;76.50;;;;;;4983891;28;20353;-76
2022/05/13 00:43:10;;;;;;;10.13;3.30;;;21.30;77.20;;;;;;4983364;28;20045;-76
2022/05/13 00:45:38;;;;;;;13.25;3.30;;;21.20;78.50;;;;;;4982798;28;20018;-78
2022/05/13 00:48:04;;;;;;;3.88;2.70;;;21.00;80.50;;;;;;4985736;28;20073;-77
2022/05/13 00:50:34;;;;;;;4.93;2.88;;;20.90;82.10;;;;;;4982161;28;20163;-77
2022/05/13 00:53:03;;;;;;;4.25;3.15;;;20.80;83.90;;;;;;4993844;28;20023;-77
2022/05/13 00:55:41;;;;;;;3.90;3.42;;;20.60;86.20;;;;;;4989690;28;20026;-78
2022/05/13 00:58:11;;;;;;;6.95;3.10;;;20.40;88.60;;;;;;5004635;28;20029;-77
2022/05/13 01:00:37;;;;;;;4.93;3.38;;;20.40;90.10;;;;;;4982706;28;20495;-77
2022/05/13 01:03:06;;;;;;;3.47;2.90;;;20.20;90.70;;;;;;4990095;28;20030;-76
2022/05/13 01:05:47;;;;;;;4.00;2.85;;;20.10;91.20;;;;;;4976207;28;20018;-76
2022/05/13 01:08:15;;;;;;;4.63;3.22;;;19.90;91.70;;;;;;4983272;28;20026;-74
2022/05/13 01:10:44;;;;;;;4.88;2.67;;;19.80;92.70;;;;;;4975909;28;20022;-78
2022/05/13 01:13:20;;;;;;;5.22;3.42;;;19.70;93.10;;;;;;4977880;28;20472;-77
2022/05/13 01:15:47;;;;;;;6.25;3.88;;;19.60;93.70;;;;;;4984877;28;20018;-78
2022/05/13 01:18:34;;;;;;;9.52;3.58;;;19.50;95.60;;;;;;4986332;28;20030;-76
2022/05/13 01:21:09;;;;;;;10.88;4.25;;;19.20;97.30;;;;;;4981949;28;20069;-77
2022/05/13 01:23:42;;;;;;;6.60;3.35;;;19.00;99.30;;;;;;4995502;28;20597;-76
2022/05/13 01:26:15;;;;;;;7.28;3.90;;;18.80;99.90;;;;;;4991573;28;20262;-77
2022/05/13 01:28:56;;;;;;;7.70;3.40;;;18.70;99.90;;;;;;4988342;28;20113;-77
2022/05/13 01:31:29;;;;;;;6.90;3.10;;;18.60;99.90;;;;;;4988732;28;20472;-77
2022/05/13 01:33:57;;;;;;;10.13;4.03;;;18.40;99.90;;;;;;4994222;28;20156;-77
2022/05/13 01:36:23;;;;;;;3.83;2.90;;;18.40;99.90;;;;;;4992289;28;20038;-77
2022/05/13 01:38:50;;;;;;;4.93;2.85;;;18.40;99.90;;;;;;4982348;28;20022;-77
2022/05/13 01:41:18;;;;;;;6.05;2.70;;;18.40;99.90;;;;;;4987032;28;20010;-77
2022/05/13 01:43:48;;;;;;;4.78;2.67;;;18.40;99.90;;;;;;4984386;28;20488;-77
2022/05/13 01:46:24;;;;;;;4.47;2.75;;;18.40;99.90;;;;;;4992819;28;20486;-77
2022/05/13 01:48:50;;;;;;;4.18;3.17;;;18.40;99.90;;;;;;4983807;28;20420;-77
2022/05/13 01:51:18;;;;;;;5.78;3.55;;;18.40;99.90;;;;;;4988862;28;20480;-76
2022/05/13 01:53:52;;;;;;;6.85;3.60;;;18.40;99.90;;;;;;4986202;28;20022;-76
2022/05/13 01:56:18;;;;;;;6.00;3.30;;;18.40;99.90;;;;;;4991213;28;20029;-77
2022/05/13 01:58:46;;;;;;;8.45;3.85;;;18.40;99.90;;;;;;4989153;28;20449;-77
2022/05/13 02:01:15;;;;;;;4.32;3.17;;;18.30;99.90;;;;;;4997022;28;20458;-77
2022/05/13 02:03:45;;;;;;;4.40;3.35;;;18.30;99.90;;;;;;4984832;28;20383;-77
2022/05/13 02:06:25;;;;;;;6.38;3.50;;;18.30;99.90;;;;;;4989457;28;20676;-77
2022/05/13 02:08:55;;;;;;;4.13;2.63;;;18.30;99.90;;;;;;4984767;28;20069;-77
2022/05/13 02:11:30;;;;;;;3.72;2.83;;;18.30;99.90;;;;;;4992400;28;20068;-77
2022/05/13 02:13:58;;;;;;;4.03;2.83;;;18.40;99.90;;;;;;4986265;28;20036;-77
2022/05/13 02:16:29;;;;;;;5.22;2.40;;;18.40;99.90;;;;;;4994669;28;20121;-77
2022/05/13 02:19:01;;;;;;;3.60;2.47;;;18.40;99.90;;;;;;4994295;28;20479;-81
2022/05/13 02:21:28;;;;;;;5.32;2.70;;;18.40;99.90;;;;;;4998123;28;20033;-77
2022/05/13 02:23:58;;;;;;;5.00;2.35;;;18.30;99.90;;;;;;4989190;28;20128;-77
2022/05/13 02:26:24;;;;;;;2.25;2.05;;;18.30;99.90;;;;;;5005825;28;20053;-77
2022/05/13 02:28:51;;;;;;;3.92;2.22;;;18.30;99.90;;;;;;4984196;28;20041;-78
2022/05/13 02:31:23;;;;;;;4.55;2.03;;;18.40;99.90;;;;;;5000686;28;20104;-76
2022/05/13 02:34:03;;;;;;;2.58;2.05;;;18.30;99.90;;;;;;4987754;28;20780;-77
2022/05/13 02:36:29;;;;;;;3.85;2.03;;;18.30;99.90;;;;;;4982977;28;20030;-78
2022/05/13 02:38:56;;;;;;;4.40;2.15;;;18.20;99.90;;;;;;4984399;28;20033;-77
2022/05/13 02:41:22;;;;;;;3.65;2.10;;;18.20;99.90;;;;;;4986314;28;20022;-77
2022/05/13 02:43:53;;;;;;;4.43;2.50;;;18.20;99.90;;;;;;4991003;28;20022;-78
2022/05/13 02:46:33;;;;;;;3.88;2.13;;;18.20;99.90;;;;;;4992573;28;20029;-77
2022/05/13 02:49:08;;;;;;;3.30;2.22;;;18.20;99.90;;;;;;4987767;28;20494;-77
2022/05/13 02:51:34;;;;;;;4.30;2.30;;;18.20;99.90;;;;;;4986231;28;20052;-77
2022/05/13 02:54:03;;;;;;;3.43;2.40;;;18.20;99.90;;;;;;4990984;28;20678;-77
2022/05/13 02:56:28;;;;;;;3.58;2.50;;;18.20;99.90;;;;;;5006516;28;20440;-77
2022/05/13 02:58:58;;;;;;;4.53;1.90;;;18.20;99.90;;;;;;4987980;28;20728;-77
2022/05/13 03:01:24;;;;;;;2.15;1.95;;;18.20;99.90;;;;;;4987583;28;20034;-77
2022/05/13 03:03:54;;;;;;;2.15;1.95;;;18.20;99.90;;;;;;4987487;28;20430;-77
2022/05/13 03:06:21;;;;;;;6.05;2.17;;;18.20;99.90;;;;;;4993145;28;20083;-78
2022/05/13 03:08:51;;;;;;;4.57;2.10;;;18.20;99.90;;;;;;4999122;28;20054;-77
2022/05/13 03:11:20;;;;;;;2.58;2.03;;;18.20;99.90;;;;;;4988877;28;20730;-78
2022/05/13 03:13:49;;;;;;;5.18;2.17;;;18.20;99.90;;;;;;4979464;28;20025;-78
2022/05/13 03:16:21;;;;;;;3.30;2.00;;;18.00;99.90;;;;;;4991713;28;20113;-77
2022/05/13 03:18:55;;;;;;;3.28;1.85;;;18.10;99.90;;;;;;4988775;28;20463;-77
2022/05/13 03:21:30;;;;;;;3.30;2.10;;;18.20;99.90;;;;;;4986839;28;20050;-77
2022/05/13 03:23:59;;;;;;;6.53;2.05;;;18.10;99.90;;;;;;4985382;28;20038;-77
2022/05/13 03:26:27;;;;;;;4.43;1.90;;;18.10;99.90;;;;;;4992680;28;20388;-77
2022/05/13 03:28:55;;;;;;;2.40;2.00;;;18.10;99.90;;;;;;4976788;28;20030;-77
2022/05/13 03:31:21;;;;;;;1.98;1.77;;;18.10;99.90;;;;;;4984796;28;20038;-77
2022/05/13 03:33:49;;;;;;;1.88;1.70;;;18.20;99.90;;;;;;4986359;28;20084;-77
2022/05/13 03:36:14;;;;;;;2.35;1.88;;;18.20;99.90;;;;;;4993793;28;20026;-77
2022/05/13 03:38:42;;;;;;;1.77;1.67;;;18.20;99.90;;;;;;4986133;28;20472;-77
2022/05/13 03:41:09;;;;;;;1.92;1.70;;;18.20;99.90;;;;;;4987908;28;20019;-77
2022/05/13 03:43:36;;;;;;;1.80;1.60;;;18.10;99.90;;;;;;4987608;28;20031;-78
2022/05/13 03:46:05;;;;;;;2.28;1.42;;;18.10;99.90;;;;;;4990120;28;20466;-77
2022/05/13 03:48:33;;;;;;;2.05;1.70;;;18.10;99.90;;;;;;4985716;28;20072;-77
2022/05/13 03:51:00;;;;;;;2.13;1.80;;;18.10;99.90;;;;;;5010365;28;20022;-78
2022/05/13 03:53:27;;;;;;;1.98;1.45;;;18.00;99.90;;;;;;4990346;28;20021;-77
2022/05/13 03:55:56;;;;;;;3.13;1.65;;;18.00;99.90;;;;;;4985072;28;20073;-77
2022/05/13 03:58:23;;;;;;;1.90;1.70;;;18.00;99.90;;;;;;4992259;28;20057;-77
2022/05/13 04:00:49;;;;;;;1.90;1.75;;;18.00;99.90;;;;;;4984156;28;20774;-77
2022/05/13 04:03:16;;;;;;;;;;;18.00;99.90;;;;;;4996022;28;20037;-77
2022/05/13 04:11:14;;;;;;;2.25;1.73;;;18.10;99.90;;;;;;4990057;28;20064;-77
2022/05/13 04:16:28;;;;;;;1.90;1.75;;;18.10;99.90;;;;;;4985783;28;20037;-78
2022/05/13 04:18:58;;;;;;;2.13;1.83;;;18.10;99.90;;;;;;4985049;28;21525;-76
2022/05/13 04:21:29;;;;;;;3.20;2.08;;;18.00;99.90;;;;;;4987710;28;20065;-77
2022/05/13 04:23:56;;;;;;;2.53;1.80;;;17.90;99.90;;;;;;5001461;28;20820;-76
2022/05/13 04:26:31;;;;;;;2.55;2.00;;;17.80;99.90;;;;;;4996994;28;21347;-76
2022/05/13 04:28:59;;;;;;;3.20;2.10;;;17.70;99.90;;;;;;4983354;28;20026;-77
2022/05/13 04:31:31;;;;;;;2.70;2.20;;;17.70;99.90;;;;;;4987393;28;20084;-76
2022/05/13 04:34:01;;;;;;;3.00;2.25;;;17.60;99.90;;;;;;4977477;28;20026;-76
2022/05/13 04:36:30;;;;;;;3.70;2.30;;;17.60;99.90;;;;;;5005415;28;20025;-76
2022/05/13 04:39:03;;;;;;;3.85;2.47;;;17.60;99.90;;;;;;4986670;28;20018;-76
2022/05/13 04:44:24;;;;;;;2.63;2.40;;;17.60;99.90;;;;;;4991623;28;20448;-77
2022/05/13 04:46:53;;;;;;;3.20;2.70;;;17.60;99.90;;;;;;4983915;28;20076;-76
2022/05/13 04:49:22;;;;;;;5.20;2.53;;;17.60;99.90;;;;;;4981103;28;20515;-77
2022/05/13 04:51:50;;;;;;;2.75;2.50;;;17.50;99.90;;;;;;4987357;28;20022;-77
2022/05/13 04:54:18;;;;;;;4.40;2.58;;;17.60;99.90;;;;;;4982238;28;20388;-77
2022/05/13 04:56:46;;;;;;;4.30;2.53;;;17.50;99.90;;;;;;4985823;28;20033;-77
2022/05/13 04:59:12;;;;;;;3.20;2.90;;;17.60;99.90;;;;;;4985813;28;20014;-77
2022/05/13 05:01:42;;;;;;;3.43;2.60;;;17.60;99.90;;;;;;4989547;28;20082;-76
2022/05/13 05:04:17;;;;;;;3.75;2.70;;;17.50;99.90;;;;;;4989228;28;20258;-81
2022/05/13 05:06:50;;;;;;;6.63;2.63;;;17.60;99.90;;;;;;4999549;28;20022;-82
2022/05/13 05:09:24;;;;;;;4.05;2.63;;;17.70;99.90;;;;;;4988784;28;20034;-84
2022/05/13 05:11:56;;;;;;;3.13;2.55;;;17.80;99.90;;;;;;4993208;28;20295;-77
2022/05/13 05:14:23;;;;;;;7.95;3.17;;;17.90;99.90;;;;;;4982821;28;20025;-77
2022/05/13 05:16:51;;;;;;;8.20;3.13;;;17.90;99.90;;;;;;4996498;28;20061;-78
2022/05/13 05:19:19;;;;;;;4.22;3.00;;;17.80;99.90;;;;;;4985088;28;20021;-78
2022/05/13 05:21:46;;;;;;;6.30;2.60;;;17.70;99.90;;;;;;4990940;28;20022;-77
2022/05/13 05:24:22;;;;;;;10.23;3.15;;;17.70;99.90;;;;;;4992188;28;20041;-82
2022/05/13 05:26:52;;;;;;;6.07;3.60;;;17.70;99.90;;;;;;5013088;28;20521;-81
2022/05/13 05:29:30;;;;;;;2.85;2.58;;;17.80;99.90;;;;;;5012140;28;20055;-83
2022/05/13 05:31:59;;;;;;;3.92;3.45;;;17.90;99.90;;;;;;5013361;28;20058;-82
2022/05/13 05:45:27;;;;;;;3.60;2.72;;;18.40;99.90;;;;;;5740465;23;20046;-82
2022/05/13 06:16:26;;;;;;;5.03;2.83;;;18.70;99.90;;;;;;5167066;23;20913;-76
2022/05/13 06:19:00;;;;;;;4.53;2.88;;;18.80;99.90;;;;;;4985785;28;20018;-80
2022/05/13 06:21:27;;;;;;;6.82;3.40;;;18.80;99.90;;;;;;4977554;28;20018;-78
2022/05/13 06:23:54;;;;;;;4.35;3.00;;;18.90;99.90;;;;;;4983430;28;20117;-77
2022/05/13 06:26:31;;;;;;;4.35;3.28;;;18.90;99.90;;;;;;4979991;28;20026;-77
2022/05/13 06:28:58;;;;;;;3.50;3.20;;;18.80;99.90;;;;;;4983949;28;20026;-77
2022/05/13 06:31:31;;;;;;;5.45;3.65;;;18.70;99.90;;;;;;4976414;28;20033;-77
2022/05/13 06:33:57;;;;;;;3.55;3.00;;;18.70;99.90;;;;;;4980327;28;20026;-77
2022/05/13 06:36:27;;;;;;;3.75;2.88;;;18.70;99.90;;;;;;4977647;28;20077;-78
2022/05/13 06:38:56;;;;;;;3.33;2.90;;;18.70;99.90;;;;;;4980441;28;20026;-77
2022/05/13 06:41:28;;;;;;;3.40;3.10;;;18.70;99.90;;;;;;4976381;28;20081;-78
2022/05/13 06:43:54;;;;;;;5.22;3.13;;;18.70;99.90;;;;;;4995927;28;20034;-77
2022/05/13 06:46:20;;;;;;;3.45;2.92;;;18.70;99.90;;;;;;4978915;28;20019;-78
2022/05/13 06:49:07;;;;;;;8.18;4.15;;;18.70;99.90;;;;;;4995055;28;20084;-79
2022/05/13 06:51:35;;;;;;;5.05;3.00;;;18.70;99.90;;;;;;4964960;28;20023;-78
2022/05/13 06:54:10;;;;;;;5.57;3.13;;;18.90;99.90;;;;;;4965125;28;20481;-78
2022/05/13 06:56:45;;;;;;;3.50;3.17;;;19.00;99.90;;;;;;4962581;28;20114;-78
2022/05/13 06:59:11;;;;;;;4.97;3.28;;;19.00;99.90;;;;;;4971263;28;20537;-79
2022/05/13 07:01:41;;;;;;;4.05;3.25;;;19.20;99.90;;;;;;4966654;28;20097;-78
2022/05/13 07:04:08;;;;;;;7.45;3.70;;;19.30;99.90;;;;;;4972786;28;20026;-77
2022/05/13 07:06:34;;;;;;;4.85;3.10;;;19.50;99.90;;;;;;4969798;28;20045;-78
2022/05/13 07:09:02;;;;;;;3.95;3.45;;;19.40;99.90;;;;;;4969160;28;20038;-78
2022/05/13 07:11:29;;;;;;;4.72;3.42;;;19.40;99.90;;;;;;4983410;28;20026;-76
2022/05/13 07:13:58;;;;;;;4.22;3.15;;;19.40;99.90;;;;;;4969948;28;20101;-80
2022/05/13 07:16:24;;;;;;;3.17;2.67;;;19.40;99.90;;;;;;4980018;28;20042;-79
2022/05/13 07:18:50;;;;;;;5.82;3.20;;;19.50;99.90;;;;;;4975702;28;20023;-78
2022/05/13 07:21:22;;;;;;;4.50;3.10;;;19.40;99.90;;;;;;4966631;28;20432;-78
2022/05/13 07:23:50;;;;;;;7.65;3.65;;;19.30;99.90;;;;;;4975890;28;20687;-78
2022/05/13 07:26:16;;;;;;;5.88;3.00;;;19.30;99.90;;;;;;4975513;28;20349;-78
2022/05/13 07:28:44;;;;;;;4.47;2.88;;;19.20;99.90;;;;;;4978720;28;20025;-78
2022/05/13 07:31:27;;;;;;;5.55;3.53;;;19.10;99.90;;;;;;4972762;28;20638;-77
2022/05/13 07:33:56;;;;;;;3.90;3.38;;;19.10;99.90;;;;;;4971101;28;21802;-78
2022/05/13 07:36:29;;;;;;;3.70;3.30;;;19.00;99.90;;;;;;4971601;28;20019;-76
2022/05/13 07:42:00;;;;;;;4.00;3.10;;;18.80;99.90;;;;;;4959434;28;20042;-77
2022/05/13 07:44:30;;;;;;;4.10;3.07;;;18.60;99.90;;;;;;4978667;28;20495;-76
2022/05/13 07:46:59;;;;;;;5.38;3.83;;;18.50;99.90;;;;;;4959946;28;20022;-76
2022/05/13 07:49:26;;;;;;;5.07;3.60;;;18.40;99.90;;;;;;4977450;28;20392;-76
2022/05/13 07:51:56;;;;;;;5.18;3.67;;;18.30;99.90;;;;;;4966319;28;20534;-76
2022/05/13 07:54:30;;;;;;;3.78;3.42;;;18.20;99.90;;;;;;4971800;28;20642;-76
2022/05/13 07:56:56;;;;;;;3.80;3.42;;;18.30;99.90;;;;;;4965382;28;20034;-76
2022/05/13 07:59:27;;;;;;;6.88;3.83;;;18.20;99.90;;;;;;4972772;28;20026;-76
2022/05/13 08:01:53;;;;;;;4.82;3.80;;;18.20;99.90;;;;;;4967937;28;20053;-76
2022/05/13 08:04:21;;;;;;;4.10;3.50;;;18.20;99.90;;;;;;4978210;28;20424;-76
2022/05/13 08:06:47;;;;;;;5.55;3.58;;;18.10;99.90;;;;;;4969260;28;20101;-76
2022/05/13 08:09:18;;;;;;;4.18;3.63;;;18.10;99.90;;;;;;4965511;28;20195;-76
2022/05/13 08:11:45;;;;;;;4.10;3.63;;;18.30;99.90;;;;;;4974717;28;20026;-76
2022/05/13 08:14:12;;;;;;;4.07;3.67;;;18.30;99.90;;;;;;4960840;28;20110;-77
2022/05/13 08:16:42;;;;;;;4.47;3.60;;;18.40;99.90;;;;;;4971603;28;20634;-76
2022/05/13 08:19:07;;;;;;;4.53;3.28;;;18.30;99.90;;;;;;4972688;28;20096;-77
2022/05/13 08:21:33;;;;;;;3.95;3.17;;;18.30;99.90;;;;;;4976140;28;20723;-77
2022/05/13 08:23:59;;;;;;;5.20;3.20;;;18.40;99.90;;;;;;4976983;28;20031;-77
2022/05/13 08:26:31;;;;;;;9.00;3.53;;;18.30;99.90;;;;;;4981576;28;20054;-77
2022/05/13 08:28:58;;;;;;;3.33;3.03;;;18.30;99.90;;;;;;4972274;28;20547;-77
2022/05/13 08:31:27;;;;;;;5.13;3.30;;;18.30;99.90;;;;;;4973306;28;20139;-77
2022/05/13 08:33:59;;;;;;;3.35;2.80;;;18.40;99.90;;;;;;4975107;28;20034;-77
2022/05/13 08:36:29;;;;;;;4.80;3.20;;;18.40;99.90;;;;;;4978604;28;20041;-77
2022/05/13 08:39:01;;;;;;;2.90;2.33;;;18.50;99.90;;;;;;4971714;28;20098;-76
2022/05/13 08:41:54;;;;;;;4.35;3.15;;;18.50;99.90;;;;;;4972347;28;20019;-77
2022/05/13 08:44:20;;;;;;;2.60;2.40;;;18.50;99.90;;;;;;4967762;28;20042;-76
2022/05/13 08:47:21;;;;;;;3.22;2.80;;;18.60;99.90;;;;;;4973274;28;20023;-76
2022/05/13 08:50:02;;;;;;;4.90;2.83;;;18.70;99.90;;;;;;4955636;28;20029;-77
2022/05/13 08:53:25;;;;;;;4.05;2.83;;;19.00;99.90;;;;;;4972430;28;20080;-77
2022/05/13 08:56:14;;;;;;;2.25;2.05;;;19.40;99.90;;;;;;4936633;29;20028;-77
2022/05/13 08:59:13;;;;;;;4.00;2.28;;;19.80;99.90;;;;;;4938797;29;20078;-76
2022/05/13 09:01:48;;;;;;;2.95;2.30;;;20.10;99.90;;;;;;4982970;28;20030;-77
2022/05/13 09:04:40;;;;;;;3.40;2.33;;;20.20;99.90;;;;;;4965545;28;20018;-77
2022/05/13 09:07:28;;;;;;;3.53;2.47;;;20.60;99.90;;;;;;4958106;28;20070;-78
2022/05/13 09:09:59;;;;;;;2.85;2.00;;;20.90;99.90;;;;;;4966765;28;20141;-77
2022/05/13 09:12:48;;;;;;;3.33;2.33;;;21.10;99.90;;;;;;4974519;28;20054;-77
2022/05/13 09:15:19;;;;;;;2.53;2.33;;;21.20;99.90;;;;;;4962956;28;20225;-76
2022/05/13 09:18:10;;;;;;;4.53;1.95;;;21.30;99.90;;;;;;4977078;28;20717;-77
2022/05/13 09:20:40;;;;;;;4.10;2.55;;;21.40;99.90;;;;;;4977366;28;20101;-77
2022/05/13 09:23:10;;;;;;;4.38;2.47;;;21.50;99.90;;;;;;4981247;28;20022;-76
2022/05/13 09:25:51;;;;;;;4.00;2.75;;;21.60;99.90;;;;;;4975006;28;20093;-77
2022/05/13 09:28:22;;;;;;;3.22;2.90;;;21.70;99.90;;;;;;4974517;28;20015;-78
2022/05/13 09:31:04;;;;;;;4.57;2.90;;;21.70;99.90;;;;;;4969521;28;20519;-77
2022/05/13 09:33:40;;;;;;;2.58;2.38;;;21.70;99.90;;;;;;4977505;28;20117;-77
2022/05/13 09:36:29;;;;;;;3.17;2.63;;;21.80;99.90;;;;;;4973369;28;20105;-77
2022/05/13 09:38:59;;;;;;;3.63;2.90;;;21.90;99.90;;;;;;4972796;28;20114;-77
2022/05/13 09:41:29;;;;;;;2.85;2.65;;;21.90;99.90;;;;;;4966693;28;20597;-77
2022/05/13 09:44:11;;;;;;;3.38;2.55;;;22.00;99.90;;;;;;4980313;28;20046;-81
2022/05/13 09:46:52;;;;;;;2.92;2.40;;;22.20;99.90;;;;;;4983954;28;20003;-81
2022/05/13 09:49:18;;;;;;;5.32;2.88;;;22.50;99.90;;;;;;5008747;28;20019;-80
2022/05/13 09:51:58;;;;;;;4.32;2.97;;;22.70;99.90;;;;;;5003588;28;20024;-81
2022/05/13 09:54:33;;;;;;;4.88;3.10;;;22.80;99.90;;;;;;4974739;28;20027;-77
2022/05/13 09:57:33;;;;;;;5.40;3.20;;;22.90;99.90;;;;;;4964283;28;20022;-78
2022/05/13 10:00:08;;;;;;;10.70;4.57;;;22.90;99.90;;;;;;4968244;28;20021;-79
2022/05/13 10:02:37;;;;;;;6.68;3.80;;;23.00;99.90;;;;;;4976959;28;20019;-78
2022/05/13 10:05:25;;;;;;;7.35;3.65;;;23.10;99.90;;;;;;4961027;28;20652;-78
2022/05/13 10:08:12;;;;;;;9.07;3.65;;;23.10;99.90;;;;;;4971842;28;20031;-78
2022/05/13 10:14:03;;;;;;;7.10;3.40;;;23.10;99.90;;;;;;4967798;28;20065;-78
2022/05/13 10:16:43;;;;;;;5.88;3.17;;;23.10;99.90;;;;;;4970131;28;20030;-77
2022/05/13 10:19:25;;;;;;;3.30;2.97;;;23.10;99.90;;;;;;4968265;28;20105;-76
2022/05/13 10:22:09;;;;;;;3.58;3.03;;;23.30;99.90;;;;;;4970439;28;20096;-77
2022/05/13 10:25:31;;;;;;;4.25;3.65;;;23.30;99.90;;;;;;4973134;28;20023;-74
2022/05/13 10:28:18;;;;;;;3.70;3.25;;;23.40;99.90;;;;;;4943714;28;20038;-76
2022/05/13 10:31:06;;;;;;;4.85;3.42;;;23.40;99.90;;;;;;4970799;28;20064;-75
2022/05/13 10:33:46;;;;;;;4.20;3.33;;;23.30;99.90;;;;;;4973038;28;20038;-74
2022/05/13 10:36:14;;;;;;;6.20;4.00;;;23.30;99.90;;;;;;4964557;28;20048;-74
2022/05/13 10:39:06;;;;;;;8.57;4.97;;;23.40;99.90;;;;;;4973330;28;20076;-74
2022/05/13 10:41:48;;;;;;;6.82;4.32;;;23.50;99.90;;;;;;4968221;28;20021;-75
2022/05/13 10:44:20;;;;;;;6.63;5.38;;;24.30;99.90;;;;;;4968345;28;20112;-75
2022/05/13 10:46:52;;;;;;;7.68;4.90;;;24.90;99.90;;;;;;4967197;28;20049;-75
2022/05/13 10:49:18;;;;;;;4.68;4.15;;;25.30;99.10;;;;;;4962321;28;20033;-76
2022/05/13 10:52:07;;;;;;;4.65;3.65;;;25.60;98.30;;;;;;4973644;28;20026;-74
2022/05/13 10:54:50;;;;;;;4.97;3.65;;;25.80;98.00;;;;;;4964662;28;20476;-75
2022/05/13 10:57:31;;;;;;;6.90;3.78;;;25.80;97.30;;;;;;4963185;28;20145;-75
2022/05/13 11:00:17;;;;;;;6.15;4.45;;;25.90;97.40;;;;;;4958688;28;20055;-76
2022/05/13 11:03:04;;;;;;;4.77;3.50;;;25.90;96.60;;;;;;4966873;28;20019;-75
2022/05/13 11:06:17;;;;;;;7.15;3.75;;;25.90;96.20;;;;;;4964454;28;20014;-76
2022/05/13 11:09:19;;;;;;;3.90;3.60;;;26.00;96.20;;;;;;4956546;28;20678;-74
2022/05/13 11:11:45;;;;;;;6.20;3.70;;;26.10;95.50;;;;;;4968096;28;20094;-74
2022/05/13 11:14:48;;;;;;;4.97;3.75;;;26.20;94.80;;;;;;4961893;28;20098;-75
2022/05/13 11:17:41;;;;;;;4.22;3.38;;;26.20;94.60;;;;;;4963428;28;20881;-75
2022/05/13 11:20:45;;;;;;;5.90;3.40;;;26.10;94.50;;;;;;4978791;28;20383;-75
2022/05/13 11:23:43;;;;;;;7.32;5.40;;;26.30;93.50;;;;;;4970965;28;20105;-75
2022/05/13 11:26:29;;;;;;;4.65;3.90;;;26.50;93.90;;;;;;4963994;28;20018;-75
2022/05/13 11:29:05;;;;;;;6.05;3.50;;;26.40;93.90;;;;;;4977466;28;20035;-75
2022/05/13 11:31:44;;;;;;;6.10;3.57;;;26.60;92.40;;;;;;4964618;28;20038;-76
2022/05/13 11:34:40;;;;;;;4.05;3.65;;;26.50;92.30;;;;;;4975721;28;20496;-75
2022/05/13 11:37:12;;;;;;;4.70;3.35;;;26.30;92.50;;;;;;4986091;28;20030;-75
2022/05/13 11:39:56;;;;;;;3.75;3.40;;;26.40;92.40;;;;;;4968371;28;20011;-75
2022/05/13 11:45:49;;;;;;;4.28;3.45;;;26.70;91.40;;;;;;4964309;28;20070;-75
2022/05/13 11:48:33;;;;;;;3.47;2.65;;;26.60;90.80;;;;;;4965738;28;20042;-75
2022/05/13 11:51:12;;;;;;;3.40;3.10;;;26.40;90.40;;;;;;4966038;28;20026;-75
2022/05/13 11:53:54;;;;;;;3.20;2.90;;;26.40;90.80;;;;;;4961179;28;20031;-77
2022/05/13 11:56:26;;;;;;;4.50;2.72;;;26.40;90.90;;;;;;4969670;28;20022;-76
2022/05/13 11:59:11;;;;;;;3.92;2.83;;;26.30;90.10;;;;;;4962356;28;20148;-76
2022/05/13 12:01:36;;;;;;;4.07;2.75;;;26.10;90.10;;;;;;4960542;28;20029;-76
2022/05/13 12:04:11;;;;;;;;;;;25.90;90.50;;;;;;4972105;28;20018;-77
2022/05/13 12:06:52;;;;;;;5.18;2.80;;;25.80;90.90;;;;;;4973876;28;19969;-76
2022/05/13 12:09:37;;;;;;;4.18;2.42;;;26.10;90.40;;;;;;4969012;28;20103;-77
2022/05/13 12:12:06;;;;;;;3.53;2.53;;;26.20;90.20;;;;;;4970526;28;20010;-78
2022/05/13 12:14:41;;;;;;;4.32;2.60;;;26.20;88.20;;;;;;4959968;28;20073;-77
2022/05/13 12:17:41;;;;;;;4.75;2.65;;;25.90;89.50;;;;;;4984611;28;20518;-78
2022/05/13 12:20:34;;;;;;;4.13;2.47;;;25.80;89.90;;;;;;4952592;28;20035;-76
2022/05/13 12:23:18;;;;;;;2.90;2.45;;;25.90;89.10;;;;;;4967094;28;20734;-76
2022/05/13 12:25:57;;;;;;;3.00;2.35;;;25.80;89.30;;;;;;4967726;28;20023;-76
2022/05/13 12:28:29;;;;;;;3.40;2.50;;;26.00;88.60;;;;;;4971020;28;20034;-76
2022/05/13 12:30:56;;;;;;;2.67;2.40;;;26.10;88.40;;;;;;4963028;28;21792;-77
2022/05/13 12:33:23;;;;;;;4.03;2.58;;;26.10;87.60;;;;;;4961990;28;20458;-77
2022/05/13 12:39:03;;;;;;;4.78;2.05;;;26.10;87.70;;;;;;4957533;28;20077;-76
2022/05/13 12:41:43;;;;;;;2.50;2.08;;;26.10;87.00;;;;;;4966889;28;20023;-77
2022/05/13 12:44:15;;;;;;;2.42;2.20;;;26.00;87.00;;;;;;4972480;28;20022;-76
2022/05/13 12:46:52;;;;;;;2.55;2.35;;;26.00;86.70;;;;;;4973027;28;20109;-76
2022/05/13 12:49:22;;;;;;;4.50;2.33;;;25.90;87.00;;;;;;4963082;28;20026;-76
2022/05/13 12:52:12;;;;;;;3.25;2.50;;;25.80;87.30;;;;;;4971746;28;20022;-74
2022/05/13 12:54:47;;;;;;;5.95;2.70;;;25.60;88.20;;;;;;4962892;28;20018;-74
2022/05/13 12:57:30;;;;;;;3.72;2.58;;;25.50;87.70;;;;;;4958761;28;20034;-75
2022/05/13 12:59:55;;;;;;;3.60;2.70;;;25.20;88.10;;;;;;4963748;28;20133;-73
2022/05/13 13:02:29;;;;;;;3.75;2.60;;;25.10;89.40;;;;;;4956530;28;20122;-74
2022/05/13 13:05:28;;;;;;;5.88;2.85;;;25.30;89.70;;;;;;4966981;28;20100;-74
2022/05/13 13:07:55;;;;;;;5.68;2.40;;;25.40;90.10;;;;;;4963289;28;20039;-74
2022/05/13 13:10:22;;;;;;;3.67;2.47;;;25.50;88.90;;;;;;4962803;28;20479;-74
2022/05/13 13:12:58;;;;;;;4.47;2.90;;;25.60;90.20;;;;;;4966268;28;20054;-76
2022/05/13 13:15:32;;;;;;;5.32;2.80;;;25.60;88.90;;;;;;4963953;28;21586;-76
2022/05/13 13:18:08;;;;;;;5.10;2.55;;;25.60;88.00;;;;;;4969663;28;20445;-76
2022/05/13 13:21:04;;;;;;;2.63;2.40;;;25.70;88.50;;;;;;4966910;28;20484;-77
2022/05/13 13:23:36;;;;;;;2.60;2.40;;;25.90;89.20;;;;;;4960468;28;20030;-79
2022/05/13 13:26:03;;;;;;;3.05;2.70;;;25.90;87.90;;;;;;4968652;28;20022;-79
2022/05/13 13:28:43;;;;;;;5.22;2.45;;;25.80;87.80;;;;;;4976476;28;20080;-78
2022/05/13 13:31:22;;;;;;;4.70;2.78;;;25.80;88.50;;;;;;4972358;28;20077;-79
2022/05/13 13:33:53;;;;;;;2.80;2.17;;;25.60;87.30;;;;;;4966870;28;20057;-78
2022/05/13 13:36:29;;;;;;;3.42;2.80;;;25.50;86.20;;;;;;4978183;28;20050;-78
2022/05/13 13:38:58;;;;;;;3.20;2.40;;;25.30;87.30;;;;;;4970245;28;20027;-78
2022/05/13 13:41:29;;;;;;;4.13;3.40;;;25.30;87.00;;;;;;4972499;28;20030;-78
2022/05/13 13:44:03;;;;;;;2.60;2.40;;;25.30;86.60;;;;;;4973458;28;20030;-78
2022/05/13 13:46:43;;;;;;;3.78;2.55;;;25.30;86.30;;;;;;4989723;28;20030;-78
2022/05/13 13:49:17;;;;;;;5.03;2.70;;;25.30;87.40;;;;;;4975389;28;20445;-78
2022/05/13 13:51:48;;;;;;;2.50;2.30;;;25.20;87.50;;;;;;4974317;28;20025;-77
2022/05/13 13:54:18;;;;;;;2.92;2.15;;;25.20;87.20;;;;;;4973702;28;20796;-78
2022/05/13 13:56:59;;;;;;;3.00;2.50;;;25.20;87.90;;;;;;4973101;28;20116;-77
2022/05/13 14:00:33;;;;;;;4.50;2.53;;;25.20;87.90;;;;;;4971796;28;20023;-77
2022/05/13 14:03:24;;;;;;;4.82;2.53;;;25.40;88.70;;;;;;4847270;29;20075;-79
2022/05/13 14:05:54;;;;;;;2.75;2.40;;;25.40;87.50;;;;;;4903763;29;20654;-78
2022/05/13 14:08:23;;;;;;;2.70;2.50;;;25.20;87.10;;;;;;4911293;29;20024;-79
2022/05/13 14:11:10;;;;;;;5.57;3.03;;;25.20;87.20;;;;;;4906172;29;20771;-78
2022/05/13 14:13:51;;;;;;;4.38;2.50;;;25.20;88.50;;;;;;4964594;28;20058;-79
2022/05/13 14:16:30;;;;;;;4.28;2.63;;;25.20;88.30;;;;;;4978573;28;20109;-78
2022/05/13 14:19:19;;;;;;;3.20;2.70;;;25.20;88.40;;;;;;4965918;28;20027;-79
2022/05/13 14:21:59;;;;;;;3.90;2.67;;;25.20;88.50;;;;;;4966725;28;20476;-79
2022/05/13 14:24:38;;;;;;;4.95;2.65;;;25.00;88.40;;;;;;4979627;28;20030;-79
2022/05/13 14:27:19;;;;;;;3.20;2.90;;;24.90;89.20;;;;;;4971551;28;20023;-78